Mason City, Washington
Current Conditions -  °F | °C
As of 6:18 AM on Wednesday 26 Nov 2014 (Local Time) from KOMK Reporting Station
Haze Haze  
Wind Chill: 32°   Ceiling: 300
Heat Index: 32°   Visibility: 0.75mi
Dew Point: 31°   Wind: 0mph
Humidity: 96%   Direction: NA
Pressure: 30.17"   Gusts: NA
Location:  48.2566°N, 119.238°W
Report Text: KOMK 261418Z AUTO 00000KT 3/4SM BR VV003 00/M01 A3017 RMK AO2 I1000 T00001006
Loading
Personal Weather Stations






























Interactive Weather Map New forecast layout! Learn more

10-Day Weather Forecast

Advertisements
Track Severe Weather on mobile